sensor_id;sensor_type;location;lat;lon;timestamp;pressure;altitude;pressure_sealevel;temperature;humidity
28797;BME280;24974;54.444;18.560;2024-02-14T00:00:29;101493.63;;;8.41;62.28
28797;BME280;24974;54.444;18.560;2024-02-14T00:03:00;101505.38;;;8.57;61.27
28797;BME280;24974;54.444;18.560;2024-02-14T00:05:31;101496.91;;;8.54;61.12
28797;BME280;24974;54.444;18.560;2024-02-14T00:08:02;101502.25;;;9.10;59.56
28797;BME280;24974;54.444;18.560;2024-02-14T00:10:33;101493.78;;;9.01;59.95
28797;BME280;24974;54.444;18.560;2024-02-14T00:13:04;101502.81;;;9.07;59.70
28797;BME280;24974;54.444;18.560;2024-02-14T00:15:36;101501.00;;;8.41;61.49
28797;BME280;24974;54.444;18.560;2024-02-14T00:18:07;101505.63;;;8.86;60.58
28797;BME280;24974;54.444;18.560;2024-02-14T00:20:38;101497.75;;;8.39;61.11
28797;BME280;24974;54.444;18.560;2024-02-14T00:23:12;101505.69;;;8.40;61.33
28797;BME280;24974;54.444;18.560;2024-02-14T00:25:43;101501.56;;;8.12;62.08
28797;BME280;24974;54.444;18.560;2024-02-14T00:28:13;101510.00;;;8.87;60.34
28797;BME280;24974;54.444;18.560;2024-02-14T00:30:44;101503.75;;;8.56;60.40
28797;BME280;24974;54.444;18.560;2024-02-14T00:33:16;101513.03;;;8.65;60.37
28797;BME280;24974;54.444;18.560;2024-02-14T00:35:51;101501.84;;;8.41;61.36
28797;BME280;24974;54.444;18.560;2024-02-14T00:38:22;101510.53;;;7.82;63.03
28797;BME280;24974;54.444;18.560;2024-02-14T00:40:53;101505.91;;;7.88;62.67
28797;BME280;24974;54.444;18.560;2024-02-14T00:43:24;101507.56;;;7.94;62.05
28797;BME280;24974;54.444;18.560;2024-02-14T00:45:55;101501.19;;;7.68;62.91
28797;BME280;24974;54.444;18.560;2024-02-14T00:48:27;101505.66;;;8.30;61.53
28797;BME280;24974;54.444;18.560;2024-02-14T00:50:58;101502.91;;;8.15;61.62
28797;BME280;24974;54.444;18.560;2024-02-14T00:53:29;101503.41;;;7.66;63.79
28797;BME280;24974;54.444;18.560;2024-02-14T00:56:00;101508.28;;;7.59;63.45
28797;BME280;24974;54.444;18.560;2024-02-14T00:58:31;101514.19;;;7.25;64.10
28797;BME280;24974;54.444;18.560;2024-02-14T01:01:02;101507.00;;;8.07;62.16
28797;BME280;24974;54.444;18.560;2024-02-14T01:03:33;101503.16;;;7.83;63.02
28797;BME280;24974;54.444;18.560;2024-02-14T01:06:04;101508.47;;;7.22;64.63
28797;BME280;24974;54.444;18.560;2024-02-14T01:08:35;101504.47;;;6.97;64.97
28797;BME280;24974;54.444;18.560;2024-02-14T01:11:08;101508.69;;;7.20;64.13
28797;BME280;24974;54.444;18.560;2024-02-14T01:13:38;101502.03;;;7.64;63.19
28797;BME280;24974;54.444;18.560;2024-02-14T01:16:09;101511.63;;;7.76;62.72
28797;BME280;24974;54.444;18.560;2024-02-14T01:18:40;101506.94;;;7.56;63.11
28797;BME280;24974;54.444;18.560;2024-02-14T01:21:11;101508.69;;;7.20;64.67
28797;BME280;24974;54.444;18.560;2024-02-14T01:23:43;101507.78;;;7.72;62.40
28797;BME280;24974;54.444;18.560;2024-02-14T01:26:13;101508.09;;;7.81;62.59
28797;BME280;24974;54.444;18.560;2024-02-14T01:28:45;101507.50;;;6.96;66.21
28797;BME280;24974;54.444;18.560;2024-02-14T01:31:16;101502.34;;;6.99;65.55
28797;BME280;24974;54.444;18.560;2024-02-14T01:33:46;101502.38;;;7.10;64.91
28797;BME280;24974;54.444;18.560;2024-02-14T01:36:17;101502.91;;;7.12;65.08
28797;BME280;24974;54.444;18.560;2024-02-14T01:38:48;101506.53;;;7.22;64.69
28797;BME280;24974;54.444;18.560;2024-02-14T01:41:19;101511.09;;;7.01;64.76
28797;BME280;24974;54.444;18.560;2024-02-14T01:43:51;101503.66;;;6.92;65.85
28797;BME280;24974;54.444;18.560;2024-02-14T01:46:23;101503.44;;;6.98;65.53
28797;BME280;24974;54.444;18.560;2024-02-14T01:48:54;101503.50;;;6.66;65.98
28797;BME280;24974;54.444;18.560;2024-02-14T01:51:26;101502.13;;;7.16;65.16
28797;BME280;24974;54.444;18.560;2024-02-14T01:53:57;101509.09;;;6.87;65.79
28797;BME280;24974;54.444;18.560;2024-02-14T01:56:30;101515.81;;;7.21;65.35
28797;BME280;24974;54.444;18.560;2024-02-14T01:59:01;101517.06;;;6.93;65.56
28797;BME280;24974;54.444;18.560;2024-02-14T02:01:32;101527.41;;;6.49;67.44
28797;BME280;24974;54.444;18.560;2024-02-14T02:04:04;101517.44;;;6.70;66.09
28797;BME280;24974;54.444;18.560;2024-02-14T02:06:35;101525.28;;;6.56;66.71
28797;BME280;24974;54.444;18.560;2024-02-14T02:09:06;101524.75;;;7.01;65.65
28797;BME280;24974;54.444;18.560;2024-02-14T02:11:52;101523.09;;;7.00;65.75
28797;BME280;24974;54.444;18.560;2024-02-14T02:14:32;101520.69;;;7.09;65.31
28797;BME280;24974;54.444;18.560;2024-02-14T02:17:04;101519.75;;;6.88;66.40
28797;BME280;24974;54.444;18.560;2024-02-14T02:19:38;101514.72;;;6.70;65.87
28797;BME280;24974;54.444;18.560;2024-02-14T02:22:09;101524.88;;;6.80;66.42
28797;BME280;24974;54.444;18.560;2024-02-14T02:24:40;101518.28;;;6.70;66.50
28797;BME280;24974;54.444;18.560;2024-02-14T02:27:11;101524.97;;;6.53;66.78
28797;BME280;24974;54.444;18.560;2024-02-14T02:29:44;101520.06;;;6.92;65.44
28797;BME280;24974;54.444;18.560;2024-02-14T02:32:15;101521.88;;;6.81;66.32
28797;BME280;24974;54.444;18.560;2024-02-14T02:34:47;101524.13;;;6.89;65.60
28797;BME280;24974;54.444;18.560;2024-02-14T02:37:17;101525.09;;;6.73;66.55
28797;BME280;24974;54.444;18.560;2024-02-14T02:39:49;101521.19;;;7.01;65.65
28797;BME280;24974;54.444;18.560;2024-02-14T02:42:22;101533.78;;;6.65;65.99
28797;BME280;24974;54.444;18.560;2024-02-14T02:44:53;101528.38;;;6.70;66.73
28797;BME280;24974;54.444;18.560;2024-02-14T02:47:24;101521.38;;;6.84;65.72
28797;BME280;24974;54.444;18.560;2024-02-14T02:49:55;101522.91;;;7.17;64.92
28797;BME280;24974;54.444;18.560;2024-02-14T02:52:27;101529.94;;;6.98;65.71
28797;BME280;24974;54.444;18.560;2024-02-14T02:54:58;101529.63;;;6.52;66.69
28797;BME280;24974;54.444;18.560;2024-02-14T02:57:30;101523.34;;;6.57;66.55
28797;BME280;24974;54.444;18.560;2024-02-14T03:00:06;101534.88;;;6.27;67.22
28797;BME280;24974;54.444;18.560;2024-02-14T03:02:39;101535.16;;;6.62;66.64
28797;BME280;24974;54.444;18.560;2024-02-14T03:05:12;101538.72;;;6.31;67.30
28797;BME280;24974;54.444;18.560;2024-02-14T03:07:54;101533.56;;;6.71;66.32
28797;BME280;24974;54.444;18.560;2024-02-14T03:10:28;101525.84;;;6.58;66.41
28797;BME280;24974;54.444;18.560;2024-02-14T03:13:00;101534.00;;;6.21;67.66
28797;BME280;24974;54.444;18.560;2024-02-14T03:15:31;101533.94;;;6.43;67.16
28797;BME280;24974;54.444;18.560;2024-02-14T03:18:03;101540.72;;;6.40;67.51
28797;BME280;24974;54.444;18.560;2024-02-14T03:20:39;101540.09;;;7.13;65.70
28797;BME280;24974;54.444;18.560;2024-02-14T03:23:10;101547.78;;;6.73;66.52
28797;BME280;24974;54.444;18.560;2024-02-14T03:25:41;101545.47;;;6.97;66.02
28797;BME280;24974;54.444;18.560;2024-02-14T03:28:12;101540.69;;;6.72;66.50
28797;BME280;24974;54.444;18.560;2024-02-14T03:30:43;101540.56;;;6.57;66.85
28797;BME280;24974;54.444;18.560;2024-02-14T03:33:14;101543.59;;;7.03;65.75
28797;BME280;24974;54.444;18.560;2024-02-14T03:35:46;101548.75;;;6.57;66.78
28797;BME280;24974;54.444;18.560;2024-02-14T03:38:29;101542.00;;;6.33;67.71
28797;BME280;24974;54.444;18.560;2024-02-14T03:41:02;101541.50;;;7.20;64.74
28797;BME280;24974;54.444;18.560;2024-02-14T03:43:33;101543.66;;;7.08;65.80
28797;BME280;24974;54.444;18.560;2024-02-14T03:46:04;101539.34;;;7.27;65.35
28797;BME280;24974;54.444;18.560;2024-02-14T03:48:36;101537.88;;;6.99;65.76
28797;BME280;24974;54.444;18.560;2024-02-14T03:51:07;101539.03;;;6.71;67.22
28797;BME280;24974;54.444;18.560;2024-02-14T03:53:37;101540.63;;;7.10;65.76
28797;BME280;24974;54.444;18.560;2024-02-14T03:56:08;101538.00;;;6.78;66.83
28797;BME280;24974;54.444;18.560;2024-02-14T03:58:39;101533.34;;;7.25;65.42
28797;BME280;24974;54.444;18.560;2024-02-14T04:01:10;101533.84;;;7.17;65.19
28797;BME280;24974;54.444;18.560;2024-02-14T04:03:42;101539.84;;;7.14;65.53
28797;BME280;24974;54.444;18.560;2024-02-14T04:06:13;101548.31;;;6.70;66.55
28797;BME280;24974;54.444;18.560;2024-02-14T04:08:44;101545.69;;;7.33;65.73
28797;BME280;24974;54.444;18.560;2024-02-14T04:11:15;101544.81;;;6.80;66.18
28797;BME280;24974;54.444;18.560;2024-02-14T04:13:46;101542.59;;;6.03;68.55
28797;BME280;24974;54.444;18.560;2024-02-14T04:16:20;101533.56;;;6.66;66.40
28797;BME280;24974;54.444;18.560;2024-02-14T04:18:52;101532.75;;;7.18;64.91
28797;BME280;24974;54.444;18.560;2024-02-14T04:21:24;101543.28;;;6.57;66.55
28797;BME280;24974;54.444;18.560;2024-02-14T04:23:56;101535.19;;;6.67;66.29
28797;BME280;24974;54.444;18.560;2024-02-14T04:26:27;101544.56;;;6.82;65.72
28797;BME280;24974;54.444;18.560;2024-02-14T04:28:58;101536.16;;;6.51;66.90
28797;BME280;24974;54.444;18.560;2024-02-14T04:31:29;101544.75;;;7.07;65.34
28797;BME280;24974;54.444;18.560;2024-02-14T04:34:02;101541.56;;;7.31;64.53
28797;BME280;24974;54.444;18.560;2024-02-14T04:36:33;101534.03;;;7.63;63.85
28797;BME280;24974;54.444;18.560;2024-02-14T04:39:06;101536.75;;;7.58;64.42
28797;BME280;24974;54.444;18.560;2024-02-14T04:41:38;101544.78;;;8.00;62.58
28797;BME280;24974;54.444;18.560;2024-02-14T04:44:09;101550.56;;;8.19;61.64
28797;BME280;24974;54.444;18.560;2024-02-14T04:46:40;101553.88;;;8.26;61.59
28797;BME280;24974;54.444;18.560;2024-02-14T04:49:14;101558.25;;;8.83;59.90
28797;BME280;24974;54.444;18.560;2024-02-14T04:51:45;101560.09;;;9.23;58.56
28797;BME280;24974;54.444;18.560;2024-02-14T04:54:16;101560.16;;;8.27;60.88
28797;BME280;24974;54.444;18.560;2024-02-14T04:56:47;101566.94;;;9.26;58.58
28797;BME280;24974;54.444;18.560;2024-02-14T04:59:18;101569.13;;;9.24;58.03
28797;BME280;24974;54.444;18.560;2024-02-14T05:01:49;101565.81;;;9.22;58.54
28797;BME280;24974;54.444;18.560;2024-02-14T05:04:20;101572.06;;;9.48;57.64
28797;BME280;24974;54.444;18.560;2024-02-14T05:06:51;101560.63;;;9.31;57.78
28797;BME280;24974;54.444;18.560;2024-02-14T05:09:23;101566.47;;;8.93;59.46
28797;BME280;24974;54.444;18.560;2024-02-14T05:11:54;101568.34;;;8.98;59.22
28797;BME280;24974;54.444;18.560;2024-02-14T05:14:26;101564.72;;;7.80;61.85
28797;BME280;24974;54.444;18.560;2024-02-14T05:16:57;101562.63;;;8.23;60.97
28797;BME280;24974;54.444;18.560;2024-02-14T05:19:27;101568.09;;;8.13;61.43
28797;BME280;24974;54.444;18.560;2024-02-14T05:21:59;101568.31;;;6.81;65.49
28797;BME280;24974;54.444;18.560;2024-02-14T05:24:30;101557.03;;;7.72;63.63
28797;BME280;24974;54.444;18.560;2024-02-14T05:27:02;101557.69;;;8.30;61.16
28797;BME280;24974;54.444;18.560;2024-02-14T05:29:32;101558.38;;;7.65;64.02
28797;BME280;24974;54.444;18.560;2024-02-14T05:32:04;101551.34;;;7.94;62.70
28797;BME280;24974;54.444;18.560;2024-02-14T05:34:35;101555.00;;;8.51;60.87
28797;BME280;24974;54.444;18.560;2024-02-14T05:37:06;101561.56;;;8.55;60.43
28797;BME280;24974;54.444;18.560;2024-02-14T05:39:39;101568.13;;;8.49;60.77
28797;BME280;24974;54.444;18.560;2024-02-14T05:42:09;101565.13;;;8.76;59.89
28797;BME280;24974;54.444;18.560;2024-02-14T05:44:40;101567.25;;;8.12;61.43
28797;BME280;24974;54.444;18.560;2024-02-14T05:47:11;101567.81;;;8.20;61.13
28797;BME280;24974;54.444;18.560;2024-02-14T05:49:42;101571.34;;;8.10;61.60
28797;BME280;24974;54.444;18.560;2024-02-14T05:52:13;101567.81;;;8.30;61.69
28797;BME280;24974;54.444;18.560;2024-02-14T05:54:46;101565.25;;;7.77;62.98
28797;BME280;24974;54.444;18.560;2024-02-14T05:57:17;101571.59;;;7.98;62.16
28797;BME280;24974;54.444;18.560;2024-02-14T05:59:48;101572.16;;;7.95;62.32
28797;BME280;24974;54.444;18.560;2024-02-14T06:02:18;101569.09;;;7.81;62.68
28797;BME280;24974;54.444;18.560;2024-02-14T06:04:49;101577.44;;;8.37;60.74
28797;BME280;24974;54.444;18.560;2024-02-14T06:07:21;101585.75;;;7.65;62.99
28797;BME280;24974;54.444;18.560;2024-02-14T06:09:51;101579.66;;;8.35;60.41
28797;BME280;24974;54.444;18.560;2024-02-14T06:12:22;101581.53;;;8.86;59.17
28797;BME280;24974;54.444;18.560;2024-02-14T06:14:53;101584.03;;;8.47;60.39
28797;BME280;24974;54.444;18.560;2024-02-14T06:17:24;101582.03;;;8.06;61.21
28797;BME280;24974;54.444;18.560;2024-02-14T06:19:57;101588.69;;;8.56;60.40
28797;BME280;24974;54.444;18.560;2024-02-14T06:22:29;101589.69;;;7.94;61.67
28797;BME280;24974;54.444;18.560;2024-02-14T06:25:00;101585.63;;;9.04;58.92
28797;BME280;24974;54.444;18.560;2024-02-14T06:27:31;101588.94;;;8.85;58.99
28797;BME280;24974;54.444;18.560;2024-02-14T06:30:04;101585.66;;;8.83;58.88
28797;BME280;24974;54.444;18.560;2024-02-14T06:32:35;101589.47;;;8.31;59.67
28797;BME280;24974;54.444;18.560;2024-02-14T06:35:06;101595.50;;;9.00;58.50
28797;BME280;24974;54.444;18.560;2024-02-14T06:37:37;101589.78;;;8.91;58.60
28797;BME280;24974;54.444;18.560;2024-02-14T06:40:08;101600.19;;;8.68;59.22
28797;BME280;24974;54.444;18.560;2024-02-14T06:42:40;101597.16;;;8.95;57.84
28797;BME280;24974;54.444;18.560;2024-02-14T06:45:11;101603.94;;;8.17;59.65
28797;BME280;24974;54.444;18.560;2024-02-14T06:47:42;101602.28;;;9.33;57.86
28797;BME280;24974;54.444;18.560;2024-02-14T06:50:13;101603.75;;;8.49;59.62
28797;BME280;24974;54.444;18.560;2024-02-14T06:52:44;101598.81;;;8.46;60.70
28797;BME280;24974;54.444;18.560;2024-02-14T06:55:15;101599.91;;;8.70;58.36
28797;BME280;24974;54.444;18.560;2024-02-14T06:57:46;101598.78;;;9.02;58.35
28797;BME280;24974;54.444;18.560;2024-02-14T07:00:17;101596.09;;;8.35;60.67
28797;BME280;24974;54.444;18.560;2024-02-14T07:02:48;101593.31;;;8.81;58.55
28797;BME280;24974;54.444;18.560;2024-02-14T07:05:19;101590.03;;;8.89;58.77
28797;BME280;24974;54.444;18.560;2024-02-14T07:07:50;101595.16;;;7.99;61.62
28797;BME280;24974;54.444;18.560;2024-02-14T07:10:21;101602.13;;;8.68;59.49
28797;BME280;24974;54.444;18.560;2024-02-14T07:12:52;101593.97;;;9.63;56.97
28797;BME280;24974;54.444;18.560;2024-02-14T07:15:23;101594.88;;;9.28;57.74
28797;BME280;24974;54.444;18.560;2024-02-14T07:17:56;101595.56;;;9.74;56.17
28797;BME280;24974;54.444;18.560;2024-02-14T07:20:29;101594.16;;;9.77;56.83
28797;BME280;24974;54.444;18.560;2024-02-14T07:23:00;101599.22;;;9.44;57.60
28797;BME280;24974;54.444;18.560;2024-02-14T07:25:31;101591.69;;;8.45;60.66
28797;BME280;24974;54.444;18.560;2024-02-14T07:28:02;101598.50;;;9.08;58.35
28797;BME280;24974;54.444;18.560;2024-02-14T07:30:33;101602.09;;;8.99;58.88
28797;BME280;24974;54.444;18.560;2024-02-14T07:33:04;101598.72;;;7.95;61.51
28797;BME280;24974;54.444;18.560;2024-02-14T07:35:38;101599.53;;;7.95;61.38
28797;BME280;24974;54.444;18.560;2024-02-14T07:38:09;101600.09;;;8.07;61.13
28797;BME280;24974;54.444;18.560;2024-02-14T07:40:40;101594.94;;;8.31;60.76
28797;BME280;24974;54.444;18.560;2024-02-14T07:43:12;101594.16;;;8.61;59.33
28797;BME280;24974;54.444;18.560;2024-02-14T07:45:43;101599.88;;;9.11;58.64
28797;BME280;24974;54.444;18.560;2024-02-14T07:48:14;101596.00;;;8.25;60.69
28797;BME280;24974;54.444;18.560;2024-02-14T07:50:44;101598.22;;;8.23;60.89
28797;BME280;24974;54.444;18.560;2024-02-14T07:53:15;101605.91;;;9.13;58.56
28797;BME280;24974;54.444;18.560;2024-02-14T07:55:46;101595.53;;;8.54;59.08
28797;BME280;24974;54.444;18.560;2024-02-14T07:58:17;101594.53;;;9.55;56.79
28797;BME280;24974;54.444;18.560;2024-02-14T08:00:48;101591.16;;;8.37;59.77
28797;BME280;24974;54.444;18.560;2024-02-14T08:03:19;101596.13;;;9.71;57.11
28797;BME280;24974;54.444;18.560;2024-02-14T08:05:50;101591.66;;;8.95;57.26
28797;BME280;24974;54.444;18.560;2024-02-14T08:08:21;101593.59;;;8.90;58.43
28797;BME280;24974;54.444;18.560;2024-02-14T08:10:53;101600.34;;;9.43;57.36
28797;BME280;24974;54.444;18.560;2024-02-14T08:13:25;101601.06;;;9.69;56.28
28797;BME280;24974;54.444;18.560;2024-02-14T08:15:56;101602.91;;;8.74;58.43
28797;BME280;24974;54.444;18.560;2024-02-14T08:18:27;101599.50;;;10.52;55.27
28797;BME280;24974;54.444;18.560;2024-02-14T08:20:58;101602.78;;;9.55;56.39
28797;BME280;24974;54.444;18.560;2024-02-14T08:23:28;101599.06;;;10.34;54.14
28797;BME280;24974;54.444;18.560;2024-02-14T08:25:59;101604.75;;;10.04;55.11
28797;BME280;24974;54.444;18.560;2024-02-14T08:28:30;101607.19;;;10.05;56.11
28797;BME280;24974;54.444;18.560;2024-02-14T08:31:01;101607.13;;;9.61;57.04
28797;BME280;24974;54.444;18.560;2024-02-14T08:33:32;101610.56;;;9.92;55.67
28797;BME280;24974;54.444;18.560;2024-02-14T08:36:04;101605.34;;;9.11;57.57
28797;BME280;24974;54.444;18.560;2024-02-14T08:38:35;101602.28;;;10.47;55.03
28797;BME280;24974;54.444;18.560;2024-02-14T08:41:06;101610.34;;;10.33;53.75
28797;BME280;24974;54.444;18.560;2024-02-14T08:43:38;101604.81;;;11.30;52.75
28797;BME280;24974;54.444;18.560;2024-02-14T08:46:10;101604.28;;;11.76;50.94
28797;BME280;24974;54.444;18.560;2024-02-14T08:48:44;101607.38;;;11.69;51.08
28797;BME280;24974;54.444;18.560;2024-02-14T08:51:18;101607.63;;;12.16;50.93
28797;BME280;24974;54.444;18.560;2024-02-14T08:53:50;101609.91;;;11.90;51.40
28797;BME280;24974;54.444;18.560;2024-02-14T08:56:25;101611.69;;;12.18;49.58
28797;BME280;24974;54.444;18.560;2024-02-14T08:58:56;101608.19;;;11.94;50.11
28797;BME280;24974;54.444;18.560;2024-02-14T09:01:28;101611.41;;;11.29;51.54
28797;BME280;24974;54.444;18.560;2024-02-14T09:03:59;101606.88;;;12.10;49.72
28797;BME280;24974;54.444;18.560;2024-02-14T09:06:30;101609.09;;;11.65;51.01
28797;BME280;24974;54.444;18.560;2024-02-14T09:09:03;101612.81;;;11.03;52.50
28797;BME280;24974;54.444;18.560;2024-02-14T09:11:34;101614.91;;;11.40;51.51
28797;BME280;24974;54.444;18.560;2024-02-14T09:14:04;101618.94;;;10.95;52.62
28797;BME280;24974;54.444;18.560;2024-02-14T09:16:37;101608.84;;;10.85;52.89
28797;BME280;24974;54.444;18.560;2024-02-14T09:19:08;101613.16;;;10.23;54.33
28797;BME280;24974;54.444;18.560;2024-02-14T09:21:40;101614.72;;;11.79;51.22
28797;BME280;24974;54.444;18.560;2024-02-14T09:24:11;101619.09;;;12.04;49.51
28797;BME280;24974;54.444;18.560;2024-02-14T09:26:43;101612.31;;;10.96;50.88
28797;BME280;24974;54.444;18.560;2024-02-14T09:29:14;101609.03;;;12.13;49.27
28797;BME280;24974;54.444;18.560;2024-02-14T09:31:46;101614.78;;;10.29;52.30
28797;BME280;24974;54.444;18.560;2024-02-14T09:34:19;101619.16;;;10.30;52.11
28797;BME280;24974;54.444;18.560;2024-02-14T09:36:51;101619.47;;;10.28;52.56
28797;BME280;24974;54.444;18.560;2024-02-14T09:39:24;101615.56;;;11.03;51.59
28797;BME280;24974;54.444;18.560;2024-02-14T09:41:58;101598.81;;;10.31;52.75
28797;BME280;24974;54.444;18.560;2024-02-14T09:44:33;101604.00;;;10.38;52.64
28797;BME280;24974;54.444;18.560;2024-02-14T09:47:05;101619.09;;;11.08;50.47
28797;BME280;24974;54.444;18.560;2024-02-14T09:49:38;101610.19;;;10.09;53.32
28797;BME280;24974;54.444;18.560;2024-02-14T09:52:11;101605.50;;;11.17;50.55
28797;BME280;24974;54.444;18.560;2024-02-14T09:54:43;101611.03;;;11.89;48.91
28797;BME280;24974;54.444;18.560;2024-02-14T09:57:16;101606.81;;;10.96;50.67
28797;BME280;24974;54.444;18.560;2024-02-14T09:59:48;101606.06;;;10.12;53.66
28797;BME280;24974;54.444;18.560;2024-02-14T10:02:20;101607.34;;;10.69;52.06
28797;BME280;24974;54.444;18.560;2024-02-14T10:04:50;101590.16;;;11.11;50.72
28797;BME280;24974;54.444;18.560;2024-02-14T10:07:21;101601.41;;;10.85;50.81
28797;BME280;24974;54.444;18.560;2024-02-14T10:09:53;101602.88;;;10.44;52.05
28797;BME280;24974;54.444;18.560;2024-02-14T10:12:29;101617.69;;;11.35;49.42
28797;BME280;24974;54.444;18.560;2024-02-14T10:15:00;101601.94;;;11.16;50.11
28797;BME280;24974;54.444;18.560;2024-02-14T10:17:35;101606.78;;;12.85;46.91
28797;BME280;24974;54.444;18.560;2024-02-14T10:20:07;101615.06;;;11.96;48.11
28797;BME280;24974;54.444;18.560;2024-02-14T10:22:38;101605.44;;;11.22;49.56
28797;BME280;24974;54.444;18.560;2024-02-14T10:25:10;101603.72;;;11.02;49.49
28797;BME280;24974;54.444;18.560;2024-02-14T10:27:41;101601.66;;;11.42;48.67
28797;BME280;24974;54.444;18.560;2024-02-14T10:30:12;101602.81;;;11.84;48.12
28797;BME280;24974;54.444;18.560;2024-02-14T10:32:44;101601.97;;;12.07;47.08
28797;BME280;24974;54.444;18.560;2024-02-14T10:35:20;101592.41;;;11.57;47.98
28797;BME280;24974;54.444;18.560;2024-02-14T10:37:50;101593.22;;;12.19;46.70
28797;BME280;24974;54.444;18.560;2024-02-14T10:40:23;101594.22;;;12.28;46.23
28797;BME280;24974;54.444;18.560;2024-02-14T10:42:55;101609.66;;;11.14;48.17
28797;BME280;24974;54.444;18.560;2024-02-14T10:45:28;101593.09;;;11.67;46.80
28797;BME280;24974;54.444;18.560;2024-02-14T10:48:01;101595.63;;;12.25;46.24
28797;BME280;24974;54.444;18.560;2024-02-14T10:50:34;101598.63;;;13.27;44.29
28797;BME280;24974;54.444;18.560;2024-02-14T10:53:12;101586.94;;;13.16;44.18
28797;BME280;24974;54.444;18.560;2024-02-14T10:55:47;101586.94;;;12.51;45.68
28797;BME280;24974;54.444;18.560;2024-02-14T10:58:18;101577.69;;;11.90;46.45
28797;BME280;24974;54.444;18.560;2024-02-14T11:00:50;101580.31;;;12.19;46.09
28797;BME280;24974;54.444;18.560;2024-02-14T11:03:21;101580.78;;;11.84;46.83
28797;BME280;24974;54.444;18.560;2024-02-14T11:05:53;101586.81;;;11.14;48.31
28797;BME280;24974;54.444;18.560;2024-02-14T11:08:31;101597.50;;;11.44;46.96
28797;BME280;24974;54.444;18.560;2024-02-14T11:11:05;101594.28;;;12.23;45.21
28797;BME280;24974;54.444;18.560;2024-02-14T11:13:36;101578.16;;;11.73;45.24
28797;BME280;24974;54.444;18.560;2024-02-14T11:16:09;101582.25;;;11.04;47.58
28797;BME280;24974;54.444;18.560;2024-02-14T11:18:40;101578.63;;;12.37;45.17
28797;BME280;24974;54.444;18.560;2024-02-14T11:21:17;101592.69;;;13.33;42.87
28797;BME280;24974;54.444;18.560;2024-02-14T11:23:53;101575.03;;;10.84;47.14
28797;BME280;24974;54.444;18.560;2024-02-14T11:26:24;101571.44;;;13.34;43.23
28797;BME280;24974;54.444;18.560;2024-02-14T11:29:03;101578.50;;;11.91;45.65
28797;BME280;24974;54.444;18.560;2024-02-14T11:31:35;101564.28;;;11.78;46.73
28797;BME280;24974;54.444;18.560;2024-02-14T11:34:08;101563.09;;;12.27;45.80
28797;BME280;24974;54.444;18.560;2024-02-14T11:36:41;101564.31;;;12.54;44.47
28797;BME280;24974;54.444;18.560;2024-02-14T11:39:13;101554.88;;;12.22;44.92
28797;BME280;24974;54.444;18.560;2024-02-14T11:41:44;101548.94;;;11.30;46.54
28797;BME280;24974;54.444;18.560;2024-02-14T11:44:15;101545.50;;;11.86;46.07
28797;BME280;24974;54.444;18.560;2024-02-14T11:46:46;101559.41;;;12.83;44.13
28797;BME280;24974;54.444;18.560;2024-02-14T11:49:17;101545.19;;;13.04;43.72
28797;BME280;24974;54.444;18.560;2024-02-14T11:51:49;101546.31;;;12.75;45.05
28797;BME280;24974;54.444;18.560;2024-02-14T11:54:20;101545.34;;;13.26;43.72
28797;BME280;24974;54.444;18.560;2024-02-14T11:56:51;101541.22;;;14.15;42.33
28797;BME280;24974;54.444;18.560;2024-02-14T11:59:22;101549.44;;;12.82;44.29
28797;BME280;24974;54.444;18.560;2024-02-14T12:01:54;101543.50;;;12.10;44.65
28797;BME280;24974;54.444;18.560;2024-02-14T12:04:28;101547.59;;;14.02;42.09
28797;BME280;24974;54.444;18.560;2024-02-14T12:06:59;101548.63;;;13.42;43.19
28797;BME280;24974;54.444;18.560;2024-02-14T12:09:30;101559.63;;;13.69;42.48
28797;BME280;24974;54.444;18.560;2024-02-14T12:12:01;101538.16;;;13.66;42.28
28797;BME280;24974;54.444;18.560;2024-02-14T12:14:32;101566.34;;;13.91;42.35
28797;BME280;24974;54.444;18.560;2024-02-14T12:17:05;101544.53;;;15.89;38.75
28797;BME280;24974;54.444;18.560;2024-02-14T12:19:37;101541.03;;;14.78;40.14
28797;BME280;24974;54.444;18.560;2024-02-14T12:22:11;101538.31;;;13.97;41.31
28797;BME280;24974;54.444;18.560;2024-02-14T12:24:48;101535.94;;;14.72;39.94
28797;BME280;24974;54.444;18.560;2024-02-14T12:27:19;101517.03;;;13.84;41.64
28797;BME280;24974;54.444;18.560;2024-02-14T12:29:51;101532.69;;;13.89;42.06
28797;BME280;24974;54.444;18.560;2024-02-14T12:32:22;101527.03;;;14.83;40.06
28797;BME280;24974;54.444;18.560;2024-02-14T12:34:55;101528.19;;;15.71;38.49
28797;BME280;24974;54.444;18.560;2024-02-14T12:37:27;101529.41;;;13.37;41.49
28797;BME280;24974;54.444;18.560;2024-02-14T12:39:58;101538.03;;;15.37;38.89
28797;BME280;24974;54.444;18.560;2024-02-14T12:42:29;101515.81;;;15.20;39.15
28797;BME280;24974;54.444;18.560;2024-02-14T12:45:00;101516.09;;;16.79;37.15
28797;BME280;24974;54.444;18.560;2024-02-14T12:47:31;101514.28;;;17.51;34.72
28797;BME280;24974;54.444;18.560;2024-02-14T12:50:06;101513.13;;;16.75;35.95
28797;BME280;24974;54.444;18.560;2024-02-14T12:52:40;101508.38;;;16.67;35.38
28797;BME280;24974;54.444;18.560;2024-02-14T12:55:10;101510.25;;;14.04;40.54
28797;BME280;24974;54.444;18.560;2024-02-14T12:57:41;101516.34;;;16.13;37.63
28797;BME280;24974;54.444;18.560;2024-02-14T13:00:13;101513.63;;;14.23;40.27
28797;BME280;24974;54.444;18.560;2024-02-14T13:02:44;101509.84;;;13.47;40.64
28797;BME280;24974;54.444;18.560;2024-02-14T13:05:15;101509.44;;;16.28;36.71
28797;BME280;24974;54.444;18.560;2024-02-14T13:07:46;101518.25;;;15.78;36.49